sensor_id;sensor_type;location;lat;lon;timestamp;temperature;humidity
22779;DHT22;11556;51.194;3.800;2023-04-22T00:02:08;8.10;99.90
22779;DHT22;11556;51.194;3.800;2023-04-22T00:04:34;8.20;99.90
22779;DHT22;11556;51.194;3.800;2023-04-22T00:07:00;8.30;99.90
22779;DHT22;11556;51.194;3.800;2023-04-22T00:09:26;8.40;99.90
22779;DHT22;11556;51.194;3.800;2023-04-22T00:11:51;8.40;99.90
22779;DHT22;11556;51.194;3.800;2023-04-22T00:14:17;8.40;99.90
22779;DHT22;11556;51.194;3.800;2023-04-22T00:16:43;8.40;99.90
22779;DHT22;11556;51.194;3.800;2023-04-22T00:19:09;8.50;99.90
22779;DHT22;11556;51.194;3.800;2023-04-22T00:21:34;8.60;99.90
22779;DHT22;11556;51.194;3.800;2023-04-22T00:24:00;8.60;99.90
22779;DHT22;11556;51.194;3.800;2023-04-22T00:26:26;8.60;99.90
22779;DHT22;11556;51.194;3.800;2023-04-22T00:28:52;8.60;99.90
22779;DHT22;11556;51.194;3.800;2023-04-22T00:31:17;8.60;99.90
22779;DHT22;11556;51.194;3.800;2023-04-22T00:33:43;8.60;99.90
22779;DHT22;11556;51.194;3.800;2023-04-22T00:36:09;8.60;99.90
22779;DHT22;11556;51.194;3.800;2023-04-22T00:38:35;8.70;99.90
22779;DHT22;11556;51.194;3.800;2023-04-22T00:41:01;8.70;99.90
22779;DHT22;11556;51.194;3.800;2023-04-22T00:43:27;8.50;99.90
22779;DHT22;11556;51.194;3.800;2023-04-22T00:45:53;8.30;99.90
22779;DHT22;11556;51.194;3.800;2023-04-22T00:48:18;8.10;99.90
22779;DHT22;11556;51.194;3.800;2023-04-22T00:50:44;8.10;99.90
22779;DHT22;11556;51.194;3.800;2023-04-22T00:53:10;8.00;99.90
22779;DHT22;11556;51.194;3.800;2023-04-22T00:55:36;8.00;99.90
22779;DHT22;11556;51.194;3.800;2023-04-22T00:58:02;8.00;99.90
22779;DHT22;11556;51.194;3.800;2023-04-22T01:00:28;8.00;99.90
22779;DHT22;11556;51.194;3.800;2023-04-22T01:02:54;8.10;99.90
22779;DHT22;11556;51.194;3.800;2023-04-22T01:05:20;8.20;99.90
22779;DHT22;11556;51.194;3.800;2023-04-22T01:07:46;8.30;99.90
22779;DHT22;11556;51.194;3.800;2023-04-22T01:10:12;8.30;99.90
22779;DHT22;11556;51.194;3.800;2023-04-22T01:12:38;8.30;99.90
22779;DHT22;11556;51.194;3.800;2023-04-22T01:15:04;8.20;99.90
22779;DHT22;11556;51.194;3.800;2023-04-22T01:17:31;8.10;99.90
22779;DHT22;11556;51.194;3.800;2023-04-22T01:19:58;8.20;99.90
22779;DHT22;11556;51.194;3.800;2023-04-22T01:22:25;8.30;99.90
22779;DHT22;11556;51.194;3.800;2023-04-22T01:24:54;8.20;99.90
22779;DHT22;11556;51.194;3.800;2023-04-22T01:27:19;8.20;99.90
22779;DHT22;11556;51.194;3.800;2023-04-22T01:29:46;8.10;99.90
22779;DHT22;11556;51.194;3.800;2023-04-22T01:32:12;8.00;99.90
22779;DHT22;11556;51.194;3.800;2023-04-22T01:34:38;8.00;99.90
22779;DHT22;11556;51.194;3.800;2023-04-22T01:37:05;7.90;99.90
22779;DHT22;11556;51.194;3.800;2023-04-22T01:39:31;8.00;99.90
22779;DHT22;11556;51.194;3.800;2023-04-22T01:41:57;8.00;99.90
22779;DHT22;11556;51.194;3.800;2023-04-22T01:44:24;8.10;99.90
22779;DHT22;11556;51.194;3.800;2023-04-22T01:46:50;8.20;99.90
22779;DHT22;11556;51.194;3.800;2023-04-22T01:49:16;8.30;99.90
22779;DHT22;11556;51.194;3.800;2023-04-22T01:51:41;8.30;99.90
22779;DHT22;11556;51.194;3.800;2023-04-22T01:54:08;8.40;99.90
22779;DHT22;11556;51.194;3.800;2023-04-22T01:56:34;8.40;99.90
22779;DHT22;11556;51.194;3.800;2023-04-22T01:59:00;8.30;99.90
22779;DHT22;11556;51.194;3.800;2023-04-22T02:01:26;8.20;99.90
22779;DHT22;11556;51.194;3.800;2023-04-22T02:03:52;8.20;99.90
22779;DHT22;11556;51.194;3.800;2023-04-22T02:06:17;8.20;99.90
22779;DHT22;11556;51.194;3.800;2023-04-22T02:08:43;8.10;99.90
22779;DHT22;11556;51.194;3.800;2023-04-22T02:11:09;8.10;99.90
22779;DHT22;11556;51.194;3.800;2023-04-22T02:13:35;8.10;99.90
22779;DHT22;11556;51.194;3.800;2023-04-22T02:16:01;8.00;99.90
22779;DHT22;11556;51.194;3.800;2023-04-22T02:18:27;8.00;99.90
22779;DHT22;11556;51.194;3.800;2023-04-22T02:20:52;8.00;99.90
22779;DHT22;11556;51.194;3.800;2023-04-22T02:23:18;8.00;99.90
22779;DHT22;11556;51.194;3.800;2023-04-22T02:25:51;8.00;99.90
22779;DHT22;11556;51.194;3.800;2023-04-22T02:28:17;8.00;99.90
22779;DHT22;11556;51.194;3.800;2023-04-22T02:30:44;8.00;99.90
22779;DHT22;11556;51.194;3.800;2023-04-22T02:33:10;8.00;99.90
22779;DHT22;11556;51.194;3.800;2023-04-22T02:35:36;8.10;99.90
22779;DHT22;11556;51.194;3.800;2023-04-22T02:38:01;8.30;99.90
22779;DHT22;11556;51.194;3.800;2023-04-22T02:40:27;8.20;99.90
22779;DHT22;11556;51.194;3.800;2023-04-22T02:42:53;8.20;99.90
22779;DHT22;11556;51.194;3.800;2023-04-22T02:45:18;8.10;99.90
22779;DHT22;11556;51.194;3.800;2023-04-22T02:47:45;8.10;99.90
22779;DHT22;11556;51.194;3.800;2023-04-22T02:50:10;8.00;99.90
22779;DHT22;11556;51.194;3.800;2023-04-22T02:52:36;8.00;99.90
22779;DHT22;11556;51.194;3.800;2023-04-22T02:55:03;8.00;99.90
22779;DHT22;11556;51.194;3.800;2023-04-22T02:57:29;8.10;99.90
22779;DHT22;11556;51.194;3.800;2023-04-22T02:59:55;8.00;99.90
22779;DHT22;11556;51.194;3.800;2023-04-22T03:02:22;7.90;99.90
22779;DHT22;11556;51.194;3.800;2023-04-22T03:04:47;7.90;99.90
22779;DHT22;11556;51.194;3.800;2023-04-22T03:07:13;8.00;99.90
22779;DHT22;11556;51.194;3.800;2023-04-22T03:09:39;7.90;99.90
22779;DHT22;11556;51.194;3.800;2023-04-22T03:12:05;7.80;99.90
22779;DHT22;11556;51.194;3.800;2023-04-22T03:14:31;7.70;99.90
22779;DHT22;11556;51.194;3.800;2023-04-22T03:16:56;7.80;99.90
22779;DHT22;11556;51.194;3.800;2023-04-22T03:19:22;7.70;99.90
22779;DHT22;11556;51.194;3.800;2023-04-22T03:21:47;7.70;99.90
22779;DHT22;11556;51.194;3.800;2023-04-22T03:24:13;7.80;99.90
22779;DHT22;11556;51.194;3.800;2023-04-22T03:26:39;7.80;99.90
22779;DHT22;11556;51.194;3.800;2023-04-22T03:29:05;7.80;99.90
22779;DHT22;11556;51.194;3.800;2023-04-22T03:31:30;7.90;99.90
22779;DHT22;11556;51.194;3.800;2023-04-22T03:33:56;7.90;99.90
22779;DHT22;11556;51.194;3.800;2023-04-22T03:36:22;7.90;99.90
22779;DHT22;11556;51.194;3.800;2023-04-22T03:38:47;7.90;99.90
22779;DHT22;11556;51.194;3.800;2023-04-22T03:41:13;8.10;99.90
22779;DHT22;11556;51.194;3.800;2023-04-22T03:43:39;8.10;99.90
22779;DHT22;11556;51.194;3.800;2023-04-22T03:46:04;8.10;99.90
22779;DHT22;11556;51.194;3.800;2023-04-22T03:48:31;8.10;99.90
22779;DHT22;11556;51.194;3.800;2023-04-22T03:51:00;8.10;99.90
22779;DHT22;11556;51.194;3.800;2023-04-22T03:53:27;8.10;99.90
22779;DHT22;11556;51.194;3.800;2023-04-22T03:55:53;8.10;99.90
22779;DHT22;11556;51.194;3.800;2023-04-22T03:58:18;8.00;99.90
22779;DHT22;11556;51.194;3.800;2023-04-22T04:00:44;8.00;99.90
22779;DHT22;11556;51.194;3.800;2023-04-22T04:03:10;7.90;99.90
22779;DHT22;11556;51.194;3.800;2023-04-22T04:05:36;7.90;99.90
22779;DHT22;11556;51.194;3.800;2023-04-22T04:08:02;8.00;99.90
22779;DHT22;11556;51.194;3.800;2023-04-22T04:10:27;8.20;99.90
22779;DHT22;11556;51.194;3.800;2023-04-22T04:12:53;8.40;99.90
22779;DHT22;11556;51.194;3.800;2023-04-22T04:15:19;8.30;99.90
22779;DHT22;11556;51.194;3.800;2023-04-22T04:17:46;8.10;99.90
22779;DHT22;11556;51.194;3.800;2023-04-22T04:20:13;8.10;99.90
22779;DHT22;11556;51.194;3.800;2023-04-22T04:22:38;8.00;99.90
22779;DHT22;11556;51.194;3.800;2023-04-22T04:25:05;8.10;99.90
22779;DHT22;11556;51.194;3.800;2023-04-22T04:27:31;8.20;99.90
22779;DHT22;11556;51.194;3.800;2023-04-22T04:29:57;8.20;99.90
22779;DHT22;11556;51.194;3.800;2023-04-22T04:32:23;8.30;99.90
22779;DHT22;11556;51.194;3.800;2023-04-22T04:34:49;8.40;99.90
22779;DHT22;11556;51.194;3.800;2023-04-22T04:37:15;8.40;99.90
22779;DHT22;11556;51.194;3.800;2023-04-22T04:39:41;8.50;99.90
22779;DHT22;11556;51.194;3.800;2023-04-22T04:42:08;8.50;99.90
22779;DHT22;11556;51.194;3.800;2023-04-22T04:44:34;8.40;99.90
22779;DHT22;11556;51.194;3.800;2023-04-22T04:47:00;8.40;99.90
22779;DHT22;11556;51.194;3.800;2023-04-22T04:49:28;8.60;99.90
22779;DHT22;11556;51.194;3.800;2023-04-22T04:51:56;8.60;99.90
22779;DHT22;11556;51.194;3.800;2023-04-22T04:54:22;8.70;99.90
22779;DHT22;11556;51.194;3.800;2023-04-22T04:56:47;8.70;99.90
22779;DHT22;11556;51.194;3.800;2023-04-22T04:59:13;8.80;99.90
22779;DHT22;11556;51.194;3.800;2023-04-22T05:01:39;8.80;99.90
22779;DHT22;11556;51.194;3.800;2023-04-22T05:04:05;8.90;99.90
22779;DHT22;11556;51.194;3.800;2023-04-22T05:06:30;8.90;99.90
22779;DHT22;11556;51.194;3.800;2023-04-22T05:08:58;8.90;99.90
22779;DHT22;11556;51.194;3.800;2023-04-22T05:11:23;8.80;99.90
22779;DHT22;11556;51.194;3.800;2023-04-22T05:13:49;8.80;99.90
22779;DHT22;11556;51.194;3.800;2023-04-22T05:16:15;8.80;99.90
22779;DHT22;11556;51.194;3.800;2023-04-22T05:18:41;8.70;99.90
22779;DHT22;11556;51.194;3.800;2023-04-22T05:21:06;8.50;99.90
22779;DHT22;11556;51.194;3.800;2023-04-22T05:23:32;8.40;99.90
22779;DHT22;11556;51.194;3.800;2023-04-22T05:25:58;8.40;99.90
22779;DHT22;11556;51.194;3.800;2023-04-22T05:28:24;8.20;99.90
22779;DHT22;11556;51.194;3.800;2023-04-22T05:30:49;8.00;99.90
22779;DHT22;11556;51.194;3.800;2023-04-22T05:33:15;7.90;99.90
22779;DHT22;11556;51.194;3.800;2023-04-22T05:35:41;7.90;99.90
22779;DHT22;11556;51.194;3.800;2023-04-22T05:38:07;7.90;99.90
22779;DHT22;11556;51.194;3.800;2023-04-22T05:40:32;7.90;99.90
22779;DHT22;11556;51.194;3.800;2023-04-22T05:42:58;8.00;99.90
22779;DHT22;11556;51.194;3.800;2023-04-22T05:45:23;8.20;99.90
22779;DHT22;11556;51.194;3.800;2023-04-22T05:47:49;8.20;99.90
22779;DHT22;11556;51.194;3.800;2023-04-22T05:50:15;8.20;99.90
22779;DHT22;11556;51.194;3.800;2023-04-22T05:52:41;8.20;99.90
22779;DHT22;11556;51.194;3.800;2023-04-22T05:55:07;8.10;99.90
22779;DHT22;11556;51.194;3.800;2023-04-22T05:57:32;8.00;99.90
22779;DHT22;11556;51.194;3.800;2023-04-22T05:59:59;8.20;99.90
22779;DHT22;11556;51.194;3.800;2023-04-22T06:02:25;8.50;99.90
22779;DHT22;11556;51.194;3.800;2023-04-22T06:04:51;8.70;99.90
22779;DHT22;11556;51.194;3.800;2023-04-22T06:07:16;8.90;99.90
22779;DHT22;11556;51.194;3.800;2023-04-22T06:09:42;9.40;99.90
22779;DHT22;11556;51.194;3.800;2023-04-22T06:12:08;9.60;99.90
22779;DHT22;11556;51.194;3.800;2023-04-22T06:14:35;9.50;99.90
22779;DHT22;11556;51.194;3.800;2023-04-22T06:17:00;9.40;99.90
22779;DHT22;11556;51.194;3.800;2023-04-22T06:19:26;9.40;99.90
22779;DHT22;11556;51.194;3.800;2023-04-22T06:21:52;9.60;99.90
22779;DHT22;11556;51.194;3.800;2023-04-22T06:24:18;9.90;99.90
22779;DHT22;11556;51.194;3.800;2023-04-22T06:26:43;10.20;99.90
22779;DHT22;11556;51.194;3.800;2023-04-22T06:29:09;10.30;99.90
22779;DHT22;11556;51.194;3.800;2023-04-22T06:31:35;10.60;99.90
22779;DHT22;11556;51.194;3.800;2023-04-22T06:34:01;10.90;99.90
22779;DHT22;11556;51.194;3.800;2023-04-22T06:36:27;11.40;99.90
22779;DHT22;11556;51.194;3.800;2023-04-22T06:38:52;11.70;99.90
22779;DHT22;11556;51.194;3.800;2023-04-22T06:41:20;11.50;99.90
22779;DHT22;11556;51.194;3.800;2023-04-22T06:43:46;10.70;99.90
22779;DHT22;11556;51.194;3.800;2023-04-22T06:46:15;10.20;99.90
22779;DHT22;11556;51.194;3.800;2023-04-22T06:48:41;10.10;99.90
22779;DHT22;11556;51.194;3.800;2023-04-22T06:51:07;9.90;99.90
22779;DHT22;11556;51.194;3.800;2023-04-22T06:53:32;9.70;99.90
22779;DHT22;11556;51.194;3.800;2023-04-22T06:55:58;9.90;99.90
22779;DHT22;11556;51.194;3.800;2023-04-22T06:58:24;10.20;99.90
22779;DHT22;11556;51.194;3.800;2023-04-22T07:00:49;10.40;99.90
22779;DHT22;11556;51.194;3.800;2023-04-22T07:03:15;10.80;99.90
22779;DHT22;11556;51.194;3.800;2023-04-22T07:05:41;11.00;99.90
22779;DHT22;11556;51.194;3.800;2023-04-22T07:08:06;11.10;99.90
22779;DHT22;11556;51.194;3.800;2023-04-22T07:10:32;11.10;99.90
22779;DHT22;11556;51.194;3.800;2023-04-22T07:12:58;10.90;99.90
22779;DHT22;11556;51.194;3.800;2023-04-22T07:15:24;10.80;99.90
22779;DHT22;11556;51.194;3.800;2023-04-22T07:17:50;10.80;99.90
22779;DHT22;11556;51.194;3.800;2023-04-22T07:20:16;10.70;99.90
22779;DHT22;11556;51.194;3.800;2023-04-22T07:22:42;10.70;99.90
22779;DHT22;11556;51.194;3.800;2023-04-22T07:25:07;10.90;99.90
22779;DHT22;11556;51.194;3.800;2023-04-22T07:27:34;11.00;99.90
22779;DHT22;11556;51.194;3.800;2023-04-22T07:30:04;11.20;99.90
22779;DHT22;11556;51.194;3.800;2023-04-22T07:32:30;11.30;99.90
22779;DHT22;11556;51.194;3.800;2023-04-22T07:34:56;11.30;99.90
22779;DHT22;11556;51.194;3.800;2023-04-22T07:37:22;11.50;99.90
22779;DHT22;11556;51.194;3.800;2023-04-22T07:39:47;11.70;99.90
22779;DHT22;11556;51.194;3.800;2023-04-22T07:42:13;12.20;99.90
22779;DHT22;11556;51.194;3.800;2023-04-22T07:44:39;12.00;99.90
22779;DHT22;11556;51.194;3.800;2023-04-22T07:47:04;12.10;99.90
22779;DHT22;11556;51.194;3.800;2023-04-22T07:49:32;12.00;99.90
22779;DHT22;11556;51.194;3.800;2023-04-22T07:51:57;11.70;99.90
22779;DHT22;11556;51.194;3.800;2023-04-22T07:54:23;11.40;99.90
22779;DHT22;11556;51.194;3.800;2023-04-22T07:56:49;11.40;99.90
22779;DHT22;11556;51.194;3.800;2023-04-22T07:59:14;11.40;99.90
22779;DHT22;11556;51.194;3.800;2023-04-22T08:01:40;11.50;99.90
22779;DHT22;11556;51.194;3.800;2023-04-22T08:04:06;11.50;99.90
22779;DHT22;11556;51.194;3.800;2023-04-22T08:06:32;11.40;99.90
22779;DHT22;11556;51.194;3.800;2023-04-22T08:08:58;11.40;99.90
22779;DHT22;11556;51.194;3.800;2023-04-22T08:11:23;11.50;99.90
22779;DHT22;11556;51.194;3.800;2023-04-22T08:13:49;11.80;99.90
22779;DHT22;11556;51.194;3.800;2023-04-22T08:16:15;12.30;99.90
22779;DHT22;11556;51.194;3.800;2023-04-22T08:18:41;12.90;99.90
22779;DHT22;11556;51.194;3.800;2023-04-22T08:21:06;13.70;99.90
22779;DHT22;11556;51.194;3.800;2023-04-22T08:23:32;14.60;99.90
22779;DHT22;11556;51.194;3.800;2023-04-22T08:25:58;15.40;99.90
22779;DHT22;11556;51.194;3.800;2023-04-22T08:28:24;16.70;99.90
22779;DHT22;11556;51.194;3.800;2023-04-22T08:30:50;17.90;99.90
22779;DHT22;11556;51.194;3.800;2023-04-22T08:33:16;18.90;99.90
22779;DHT22;11556;51.194;3.800;2023-04-22T08:35:41;20.00;99.90
22779;DHT22;11556;51.194;3.800;2023-04-22T08:38:07;19.80;99.90
22779;DHT22;11556;51.194;3.800;2023-04-22T08:40:33;20.50;99.90
22779;DHT22;11556;51.194;3.800;2023-04-22T08:42:59;20.50;99.90
22779;DHT22;11556;51.194;3.800;2023-04-22T08:45:25;20.20;99.90
22779;DHT22;11556;51.194;3.800;2023-04-22T08:47:54;20.00;99.90
22779;DHT22;11556;51.194;3.800;2023-04-22T08:50:20;19.90;99.90
22779;DHT22;11556;51.194;3.800;2023-04-22T08:52:49;19.50;99.90
22779;DHT22;11556;51.194;3.800;2023-04-22T08:55:15;19.40;99.90
22779;DHT22;11556;51.194;3.800;2023-04-22T08:57:42;19.00;99.90
22779;DHT22;11556;51.194;3.800;2023-04-22T09:00:09;18.40;99.90
22779;DHT22;11556;51.194;3.800;2023-04-22T09:02:36;17.90;99.90
22779;DHT22;11556;51.194;3.800;2023-04-22T09:05:05;17.30;99.90
22779;DHT22;11556;51.194;3.800;2023-04-22T09:07:31;16.70;99.90
22779;DHT22;11556;51.194;3.800;2023-04-22T09:09:58;16.40;99.90
22779;DHT22;11556;51.194;3.800;2023-04-22T09:12:26;16.20;99.90
22779;DHT22;11556;51.194;3.800;2023-04-22T09:14:53;15.90;99.90
22779;DHT22;11556;51.194;3.800;2023-04-22T09:17:32;15.70;99.90
22779;DHT22;11556;51.194;3.800;2023-04-22T09:19:59;15.50;99.90
22779;DHT22;11556;51.194;3.800;2023-04-22T09:22:40;15.40;99.90
22779;DHT22;11556;51.194;3.800;2023-04-22T09:25:17;15.40;99.90
22779;DHT22;11556;51.194;3.800;2023-04-22T09:27:51;15.40;99.90
22779;DHT22;11556;51.194;3.800;2023-04-22T09:30:28;15.40;99.90
22779;DHT22;11556;51.194;3.800;2023-04-22T09:32:56;15.30;99.90
22779;DHT22;11556;51.194;3.800;2023-04-22T09:35:29;15.30;99.90
22779;DHT22;11556;51.194;3.800;2023-04-22T09:37:57;15.40;99.90
22779;DHT22;11556;51.194;3.800;2023-04-22T09:40:24;15.40;99.90
22779;DHT22;11556;51.194;3.800;2023-04-22T09:42:51;15.20;99.90
22779;DHT22;11556;51.194;3.800;2023-04-22T09:45:32;15.00;99.90
22779;DHT22;11556;51.194;3.800;2023-04-22T09:48:05;14.90;99.90
22779;DHT22;11556;51.194;3.800;2023-04-22T09:50:32;14.80;99.90
22779;DHT22;11556;51.194;3.800;2023-04-22T09:53:00;14.80;99.90
22779;DHT22;11556;51.194;3.800;2023-04-22T09:55:27;14.80;99.90
22779;DHT22;11556;51.194;3.800;2023-04-22T09:57:55;14.80;99.90
22779;DHT22;11556;51.194;3.800;2023-04-22T10:00:28;14.70;99.90
22779;DHT22;11556;51.194;3.800;2023-04-22T10:02:55;14.70;99.90
22779;DHT22;11556;51.194;3.800;2023-04-22T10:05:20;14.90;99.90
22779;DHT22;11556;51.194;3.800;2023-04-22T10:07:46;15.00;99.90
22779;DHT22;11556;51.194;3.800;2023-04-22T10:10:12;15.10;99.90
22779;DHT22;11556;51.194;3.800;2023-04-22T10:12:38;15.20;99.90
22779;DHT22;11556;51.194;3.800;2023-04-22T10:15:05;15.40;99.90
22779;DHT22;11556;51.194;3.800;2023-04-22T10:17:36;15.60;99.90
22779;DHT22;11556;51.194;3.800;2023-04-22T10:20:05;15.60;99.90
22779;DHT22;11556;51.194;3.800;2023-04-22T10:22:33;15.40;99.90
22779;DHT22;11556;51.194;3.800;2023-04-22T10:24:59;14.80;99.90
22779;DHT22;11556;51.194;3.800;2023-04-22T10:27:25;14.30;99.90
22779;DHT22;11556;51.194;3.800;2023-04-22T10:29:51;14.20;99.90
22779;DHT22;11556;51.194;3.800;2023-04-22T10:34:47;14.30;99.90
22779;DHT22;11556;51.194;3.800;2023-04-22T10:37:17;14.30;99.90
22779;DHT22;11556;51.194;3.800;2023-04-22T10:40:09;13.90;99.90
22779;DHT22;11556;51.194;3.800;2023-04-22T10:42:38;13.20;99.90
22779;DHT22;11556;51.194;3.800;2023-04-22T10:45:05;13.10;99.90
22779;DHT22;11556;51.194;3.800;2023-04-22T10:47:36;13.10;99.90
22779;DHT22;11556;51.194;3.800;2023-04-22T10:50:24;13.10;99.90
22779;DHT22;11556;51.194;3.800;2023-04-22T10:52:58;13.30;99.90
22779;DHT22;11556;51.194;3.800;2023-04-22T10:55:24;13.70;99.90
22779;DHT22;11556;51.194;3.800;2023-04-22T10:57:51;13.60;99.90
22779;DHT22;11556;51.194;3.800;2023-04-22T11:00:43;13.70;99.90
22779;DHT22;11556;51.194;3.800;2023-04-22T11:03:11;13.50;99.90
22779;DHT22;11556;51.194;3.800;2023-04-22T11:05:38;13.30;99.90
22779;DHT22;11556;51.194;3.800;2023-04-22T11:08:12;12.70;99.90
22779;DHT22;11556;51.194;3.800;2023-04-22T11:13:08;12.70;99.90
22779;DHT22;11556;51.194;3.800;2023-04-22T11:15:37;13.10;99.90
22779;DHT22;11556;51.194;3.800;2023-04-22T11:18:11;13.50;99.90
22779;DHT22;11556;51.194;3.800;2023-04-22T11:20:37;13.80;99.90
22779;DHT22;11556;51.194;3.800;2023-04-22T11:23:03;14.20;99.90
22779;DHT22;11556;51.194;3.800;2023-04-22T11:25:29;14.30;99.90
22779;DHT22;11556;51.194;3.800;2023-04-22T11:27:56;14.40;99.90
22779;DHT22;11556;51.194;3.800;2023-04-22T11:30:24;14.50;99.90
22779;DHT22;11556;51.194;3.800;2023-04-22T11:32:51;14.60;99.90
22779;DHT22;11556;51.194;3.800;2023-04-22T11:35:26;14.70;99.90
22779;DHT22;11556;51.194;3.800;2023-04-22T11:42:57;14.50;99.90
22779;DHT22;11556;51.194;3.800;2023-04-22T11:45:23;14.40;99.90
22779;DHT22;11556;51.194;3.800;2023-04-22T11:47:50;14.50;99.90
22779;DHT22;11556;51.194;3.800;2023-04-22T11:50:17;14.30;99.90
22779;DHT22;11556;51.194;3.800;2023-04-22T11:52:56;14.40;99.90
22779;DHT22;11556;51.194;3.800;2023-04-22T11:55:27;14.40;99.90
22779;DHT22;11556;51.194;3.800;2023-04-22T11:57:58;14.40;99.90
22779;DHT22;11556;51.194;3.800;2023-04-22T12:00:29;14.50;99.90
22779;DHT22;11556;51.194;3.800;2023-04-22T12:03:04;14.70;99.90
22779;DHT22;11556;51.194;3.800;2023-04-22T12:05:38;14.70;99.90
22779;DHT22;11556;51.194;3.800;2023-04-22T12:08:15;14.90;99.90
22779;DHT22;11556;51.194;3.800;2023-04-22T12:10:43;15.10;99.90
22779;DHT22;11556;51.194;3.800;2023-04-22T12:13:16;15.20;99.90
22779;DHT22;11556;51.194;3.800;2023-04-22T12:15:43;15.30;99.90
22779;DHT22;11556;51.194;3.800;2023-04-22T12:18:09;15.30;99.90
22779;DHT22;11556;51.194;3.800;2023-04-22T12:20:40;15.30;99.90
22779;DHT22;11556;51.194;3.800;2023-04-22T12:23:14;15.40;99.90
22779;DHT22;11556;51.194;3.800;2023-04-22T12:25:41;15.40;99.90
22779;DHT22;11556;51.194;3.800;2023-04-22T12:28:06;15.20;99.90
22779;DHT22;11556;51.194;3.800;2023-04-22T12:30:32;15.10;99.90
22779;DHT22;11556;51.194;3.800;2023-04-22T12:32:58;15.00;99.90
22779;DHT22;11556;51.194;3.800;2023-04-22T12:35:24;15.00;99.90
22779;DHT22;11556;51.194;3.800;2023-04-22T12:37:49;15.00;99.90
22779;DHT22;11556;51.194;3.800;2023-04-22T12:40:15;14.90;99.90
22779;DHT22;11556;51.194;3.800;2023-04-22T12:42:41;14.90;99.90
22779;DHT22;11556;51.194;3.800;2023-04-22T12:45:07;15.00;99.90
22779;DHT22;11556;51.194;3.800;2023-04-22T12:47:33;15.10;99.90
22779;DHT22;11556;51.194;3.800;2023-04-22T12:49:59;15.00;99.90
22779;DHT22;11556;51.194;3.800;2023-04-22T12:52:25;14.80;99.90
22779;DHT22;11556;51.194;3.800;2023-04-22T12:54:51;14.70;99.90
22779;DHT22;11556;51.194;3.800;2023-04-22T12:57:17;14.70;99.90
22779;DHT22;11556;51.194;3.800;2023-04-22T12:59:43;14.80;99.90
22779;DHT22;11556;51.194;3.800;2023-04-22T13:02:11;14.80;99.90
22779;DHT22;11556;51.194;3.800;2023-04-22T13:04:37;15.00;99.90
22779;DHT22;11556;51.194;3.800;2023-04-22T13:07:02;15.20;99.90
22779;DHT22;11556;51.194;3.800;2023-04-22T13:09:28;15.20;99.90
22779;DHT22;11556;51.194;3.800;2023-04-22T13:11:55;15.20;99.90
22779;DHT22;11556;51.194;3.800;2023-04-22T13:14:20;15.10;99.90
22779;DHT22;11556;51.194;3.800;2023-04-22T13:16:46;15.10;99.90
22779;DHT22;11556;51.194;3.800;2023-04-22T13:19:12;15.10;99.90
22779;DHT22;11556;51.194;3.800;2023-04-22T13:21:38;15.10;99.90
22779;DHT22;11556;51.194;3.800;2023-04-22T13:24:04;15.00;99.90
22779;DHT22;11556;51.194;3.800;2023-04-22T13:26:30;14.80;99.90
22779;DHT22;11556;51.194;3.800;2023-04-22T13:28:55;14.80;99.90
22779;DHT22;11556;51.194;3.800;2023-04-22T13:31:21;14.80;99.90
22779;DHT22;11556;51.194;3.800;2023-04-22T13:33:47;14.70;99.90
22779;DHT22;11556;51.194;3.800;2023-04-22T13:36:12;14.60;99.90
22779;DHT22;11556;51.194;3.800;2023-04-22T13:38:38;14.30;99.90
22779;DHT22;11556;51.194;3.800;2023-04-22T13:41:04;14.10;99.90
22779;DHT22;11556;51.194;3.800;2023-04-22T13:43:29;14.00;99.90
22779;DHT22;11556;51.194;3.800;2023-04-22T13:45:55;13.90;99.90
22779;DHT22;11556;51.194;3.800;2023-04-22T13:48:21;13.80;99.90
22779;DHT22;11556;51.194;3.800;2023-04-22T13:50:46;13.60;99.90
22779;DHT22;11556;51.194;3.800;2023-04-22T13:53:12;13.60;99.90
22779;DHT22;11556;51.194;3.800;2023-04-22T13:55:39;13.60;99.90
22779;DHT22;11556;51.194;3.800;2023-04-22T13:58:04;13.60;99.90
22779;DHT22;11556;51.194;3.800;2023-04-22T14:00:32;13.70;99.90
22779;DHT22;11556;51.194;3.800;2023-04-22T14:02:58;13.70;99.90
22779;DHT22;11556;51.194;3.800;2023-04-22T14:05:23;13.70;99.90
22779;DHT22;11556;51.194;3.800;2023-04-22T14:07:50;13.80;99.90
22779;DHT22;11556;51.194;3.800;2023-04-22T14:10:16;13.80;99.90
22779;DHT22;11556;51.194;3.800;2023-04-22T14:12:45;13.90;99.90
22779;DHT22;11556;51.194;3.800;2023-04-22T14:15:11;13.90;99.90
22779;DHT22;11556;51.194;3.800;2023-04-22T14:17:39;13.90;99.90
22779;DHT22;11556;51.194;3.800;2023-04-22T14:20:05;14.00;99.90
22779;DHT22;11556;51.194;3.800;2023-04-22T14:22:31;14.00;99.90
22779;DHT22;11556;51.194;3.800;2023-04-22T14:24:57;14.10;99.90
22779;DHT22;11556;51.194;3.800;2023-04-22T14:27:24;14.20;99.90
22779;DHT22;11556;51.194;3.800;2023-04-22T14:29:50;14.30;99.90
22779;DHT22;11556;51.194;3.800;2023-04-22T14:32:20;14.40;99.90
22779;DHT22;11556;51.194;3.800;2023-04-22T14:34:46;14.30;99.90
22779;DHT22;11556;51.194;3.800;2023-04-22T14:37:12;14.40;99.90
22779;DHT22;11556;51.194;3.800;2023-04-22T14:39:38;14.60;99.90
22779;DHT22;11556;51.194;3.800;2023-04-22T14:42:04;14.60;99.90
22779;DHT22;11556;51.194;3.800;2023-04-22T14:44:30;14.90;99.90
22779;DHT22;11556;51.194;3.800;2023-04-22T14:46:56;15.40;99.90
22779;DHT22;11556;51.194;3.800;2023-04-22T14:49:21;15.70;99.90
22779;DHT22;11556;51.194;3.800;2023-04-22T14:51:47;15.30;99.90
22779;DHT22;11556;51.194;3.800;2023-04-22T14:54:13;15.20;99.90
22779;DHT22;11556;51.194;3.800;2023-04-22T14:56:39;14.70;99.90
22779;DHT22;11556;51.194;3.800;2023-04-22T14:59:04;14.30;99.90
22779;DHT22;11556;51.194;3.800;2023-04-22T15:01:33;14.50;99.90
22779;DHT22;11556;51.194;3.800;2023-04-22T15:03:58;15.30;99.90
22779;DHT22;11556;51.194;3.800;2023-04-22T15:06:24;15.80;99.90
22779;DHT22;11556;51.194;3.800;2023-04-22T15:08:51;16.70;99.90
22779;DHT22;11556;51.194;3.800;2023-04-22T15:11:18;17.30;99.90
22779;DHT22;11556;51.194;3.800;2023-04-22T15:13:43;17.10;99.90
22779;DHT22;11556;51.194;3.800;2023-04-22T15:16:09;16.80;99.90
22779;DHT22;11556;51.194;3.800;2023-04-22T15:18:35;17.50;99.90
22779;DHT22;11556;51.194;3.800;2023-04-22T15:21:01;18.30;99.90
22779;DHT22;11556;51.194;3.800;2023-04-22T15:23:28;19.10;99.90
22779;DHT22;11556;51.194;3.800;2023-04-22T15:25:53;19.50;99.90
22779;DHT22;11556;51.194;3.800;2023-04-22T15:28:19;20.10;99.90
22779;DHT22;11556;51.194;3.800;2023-04-22T15:30:45;20.60;99.90
22779;DHT22;11556;51.194;3.800;2023-04-22T15:33:11;20.90;99.90
22779;DHT22;11556;51.194;3.800;2023-04-22T15:35:37;20.80;99.90
22779;DHT22;11556;51.194;3.800;2023-04-22T15:38:03;20.00;99.90
22779;DHT22;11556;51.194;3.800;2023-04-22T15:40:29;19.50;99.90
22779;DHT22;11556;51.194;3.800;2023-04-22T15:42:54;19.30;99.90
22779;DHT22;11556;51.194;3.800;2023-04-22T15:45:20;18.60;99.90